Current Conditions
Mostly Cloudy
Conditions



Pressure
1014.9 (hPa) - 29.97 (inHG)
Visibility

9.7 (km) - 6.0 (miles)
Temperature
14  °C
Temperature
12  °C
Dewpoint
88  %
 Humidity
Wind Speed
2.2  m/s
5  mph
8  km/h
4  kts
Wind Direction
N
45°
E
90°
135°
S
180°
225°
W
270°
315°
 160°

South South
East
Airport Data
EBDT
Schaffen Airfield
Metar :EBDT 260525Z AUTO 16004KT 9999 BKN170/// 14/12 Q1015 BLU
Sun 26th May 07:25 am
Raw Metar Info
Raw METAR is the most common format in the world for the transmission of observational weather data. It is highly standardized through the International Civil Aviation Organization (ICAO), which allows it to be understood throughout most of the world.
API Info
Data Provided by
https://www.checkwx.com/weather/EBDT

Aviation Weather providing METAR, TAF, AIRMET, SIGMET and OUTLOOK Weather Reports
© Info
CSS/SVG/PHP scripts were developed by weather34 for use in the weather34 template © 2015-2024

Guide Info provided by Metar-Wikipedia